Language selection

Weather shortcuts

Lake of the Woods: Past 24 Hour Conditions

 

Geraldton Airport

02:00 PM EDT 14 June 2024
Disclaimer

This table is a summary of hourly weather conditions for the past 24 hours.
Please note that these observations might not always be representative of weather conditions over their associated marine area.

Date / Time
(EDT)
Wind(knots) Conditions Visibility(km) Pressure(kPa) Air tempC) Relative humidity(%) Dew pointC)
14 June 2024
14:00 NNW 3 gusts 16 Mainly Sunny 16 102.0 15 41 2
13:00 WSW 2 Mostly Cloudy 16 102.0 13 47 2
12:00 NW 3 Mostly Cloudy 16 102.0 11 48 0
11:00 N 6 Mostly Cloudy 16 102.0 10 48 0
10:00 N 5 Cloudy 16 102.0 10 57 1
9:00 N 4 Sunny 16 101.9 9 57 1
8:00 NW 3 Sunny 16 101.8 8 69 3
7:00 calm Sunny 16 101.8 5 98 5
6:00 calm Sunny 16 101.7 2 98 2
5:00 NW 2 Clear 16 101.7 3 99 3
4:00 NNE 2 Clear 16 101.6 5 85 3
3:00 NE 5 Clear 16 101.5 6 79 3
2:00 NNE 6 Clear 16 101.4 8 69 3
1:00 NNE 8 Clear 16 101.4 10 65 4
0:00 N 4 Clear 16 101.2 12 64 5
13 June 2024
23:00 NNW 8 Mostly Cloudy 16 101.1 13 65 6
22:00 calm Clear 16 101.0 12 84 9
21:00 NNW 5 Partly Cloudy 16 100.9 16 53 7
20:00 N 10 Partly Cloudy 16 100.8 17 58 9
19:00 N 10 gusts 17 Mostly Cloudy 16 100.8 17 60 9
18:00 NNW 10 gusts 17 Cloudy 16 100.7 17 61 9
17:00 NNW 12 gusts 19 Cloudy 16 100.6 17 61 9
16:00 NNW 7 Light Rain 16 100.6 15 78 12
15:00 WNW 7 Cloudy 16 100.5 16 65 10
14:00 WNW 7 gusts 15 Cloudy 16 100.5 16 75 12

Zoom-in to make a selection

Map of Great Lakes - Lake Superior marine weather areas Mid Superior - 45001 East Superior - 45004 West Superior - 45006 Slate Island - 45136 Lake Of the Woods - 45148 Kenora Airport Royal Island Armstrong Airport Caribou Island Marathon Airport Pukaskwa National Park Thunder Bay Airport Welcome Island Little Flatland Island Sault Ste. Marie Airport Wawa Airport
Legend:
buoy Buoy
land station Land Station

Great Lakes - Lake Superior Area

Another Region

Features

New Predicting and Alerting Coastal Flooding Program

Find out about coastal flooding coverage, forecasts and warnings in your region

Date modified: